createdAt,value
2018-10-02T00:01:57.134Z,9.84
2018-10-02T00:04:25.819Z,9.89
2018-10-02T00:06:55.046Z,9.94
2018-10-02T00:09:23.845Z,10.09
2018-10-02T00:11:58.417Z,10.31
2018-10-02T00:14:28.995Z,10.21
2018-10-02T00:16:57.944Z,10.03
2018-10-02T00:19:27.319Z,9.90
2018-10-02T00:21:55.945Z,9.69
2018-10-02T00:24:24.579Z,9.59
2018-10-02T00:26:54.324Z,9.50
2018-10-02T00:29:23.024Z,9.59
2018-10-02T00:31:52.270Z,9.68
2018-10-02T00:34:20.904Z,9.78
2018-10-02T00:36:49.515Z,9.85
2018-10-02T00:39:18.134Z,9.84
2018-10-02T00:41:46.699Z,9.87
2018-10-02T00:44:15.310Z,9.93
2018-10-02T00:46:43.925Z,10.05
2018-10-02T00:49:12.516Z,10.07
2018-10-02T00:51:41.213Z,9.97
2018-10-02T00:54:09.853Z,9.81
2018-10-02T00:56:39.080Z,9.71
2018-10-02T00:59:07.620Z,9.58
2018-10-02T01:01:36.240Z,9.60
2018-10-02T01:04:04.755Z,9.62
2018-10-02T01:06:33.353Z,9.61
2018-10-02T01:09:01.979Z,9.64
2018-10-02T01:11:31.234Z,9.76
2018-10-02T01:13:59.839Z,9.81
2018-10-02T01:16:28.569Z,9.87
2018-10-02T01:18:57.168Z,9.90
2018-10-02T01:21:26.279Z,10.06
2018-10-02T01:23:55.953Z,10.25
2018-10-02T01:26:24.764Z,10.07
2018-10-02T01:28:53.494Z,9.87
2018-10-02T01:31:22.114Z,9.73
2018-10-02T01:33:50.773Z,9.75
2018-10-02T01:36:19.516Z,9.72
2018-10-02T01:38:48.073Z,9.69
2018-10-02T01:41:16.719Z,9.58
2018-10-02T01:43:46.203Z,9.67
2018-10-02T01:46:14.798Z,9.77
2018-10-02T01:48:43.553Z,9.79
2018-10-02T01:51:12.188Z,9.80
2018-10-02T01:53:41.145Z,9.81
2018-10-02T01:56:09.959Z,9.92
2018-10-02T01:58:38.971Z,10.08
2018-10-02T02:01:08.289Z,9.96
2018-10-02T02:03:37.000Z,9.69
2018-10-02T02:06:05.680Z,9.52
2018-10-02T02:08:34.415Z,9.46
2018-10-02T02:11:02.989Z,9.54
2018-10-02T02:13:31.563Z,9.52
2018-10-02T02:16:00.203Z,9.41
2018-10-02T02:18:28.753Z,9.37
2018-10-02T02:20:57.318Z,9.42
2018-10-02T02:23:26.104Z,9.47
2018-10-02T02:25:54.630Z,9.54
2018-10-02T02:28:23.237Z,9.61
2018-10-02T02:30:52.163Z,9.77
2018-10-02T02:33:20.723Z,9.90
2018-10-02T02:35:49.583Z,9.89
2018-10-02T02:38:18.649Z,9.88
2018-10-02T02:40:47.508Z,9.78
2018-10-02T02:43:16.089Z,9.84
2018-10-02T02:45:44.664Z,9.81
2018-10-02T02:48:18.359Z,9.83
2018-10-02T02:50:56.488Z,9.69
2018-10-02T02:53:26.003Z,9.73
2018-10-02T02:55:54.559Z,9.77
2018-10-02T02:58:23.254Z,9.84
2018-10-02T03:00:51.888Z,9.97
2018-10-02T03:03:20.544Z,10.01
2018-10-02T03:05:50.364Z,10.05
2018-10-02T03:08:19.659Z,10.16
2018-10-02T03:10:48.224Z,10.22
2018-10-02T03:13:16.957Z,9.91
2018-10-02T03:15:45.618Z,9.72
2018-10-02T03:18:14.356Z,9.60
2018-10-02T03:20:43.521Z,9.62
2018-10-02T03:23:12.108Z,9.55
2018-10-02T03:25:40.668Z,9.65
2018-10-02T03:28:09.274Z,9.63
2018-10-02T03:30:37.863Z,9.67
2018-10-02T03:33:06.849Z,9.67
2018-10-02T03:35:35.418Z,9.77
2018-10-02T03:38:04.605Z,9.83
2018-10-02T03:40:33.363Z,9.91
2018-10-02T03:43:02.538Z,10.00
2018-10-02T03:45:31.099Z,10.00
2018-10-02T03:47:59.664Z,9.85
2018-10-02T03:50:28.280Z,9.80
2018-10-02T03:52:57.604Z,9.70
2018-10-02T03:55:26.229Z,9.63
2018-10-02T03:57:55.588Z,9.61
2018-10-02T04:00:24.194Z,9.64
2018-10-02T04:02:52.759Z,9.73
2018-10-02T04:05:21.395Z,9.77
2018-10-02T04:07:50.425Z,9.85
2018-10-02T04:10:19.887Z,9.83
2018-10-02T04:12:48.794Z,9.78
2018-10-02T04:15:17.318Z,9.83
2018-10-02T04:17:45.939Z,9.96
2018-10-02T04:20:14.620Z,10.20
2018-10-02T04:22:43.943Z,10.05
2018-10-02T04:25:12.622Z,9.92
2018-10-02T04:27:41.756Z,9.83
2018-10-02T04:30:11.171Z,9.87
2018-10-02T04:32:39.847Z,9.80
2018-10-02T04:35:08.480Z,9.77
2018-10-02T04:37:37.171Z,9.75
2018-10-02T04:40:05.787Z,9.78
2018-10-02T04:42:34.954Z,9.75
2018-10-02T04:45:04.195Z,9.82
2018-10-02T04:47:33.404Z,9.82
2018-10-02T04:50:02.066Z,9.85
2018-10-02T04:52:30.648Z,10.02
2018-10-02T04:54:59.238Z,10.20
2018-10-02T04:57:27.875Z,10.14
2018-10-02T04:59:56.550Z,9.96
2018-10-02T05:02:25.168Z,9.89
2018-10-02T05:04:54.321Z,9.95
2018-10-02T05:07:22.938Z,9.96
2018-10-02T05:09:51.695Z,9.92
2018-10-02T05:12:20.408Z,9.92
2018-10-02T05:14:50.604Z,9.93
2018-10-02T05:17:20.155Z,9.89
2018-10-02T05:19:48.828Z,9.90
2018-10-02T05:22:17.572Z,10.04
2018-10-02T05:24:46.155Z,10.10
2018-10-02T05:27:16.369Z,10.24
2018-10-02T05:29:45.768Z,10.51
2018-10-02T05:32:15.165Z,10.48
2018-10-02T05:34:43.855Z,10.34
2018-10-02T05:37:12.377Z,10.15
2018-10-02T05:39:41.733Z,10.13
2018-10-02T05:42:10.835Z,10.04
2018-10-02T05:44:39.918Z,10.02
2018-10-02T05:47:08.598Z,10.08
2018-10-02T05:49:37.319Z,10.19
2018-10-02T05:52:06.499Z,10.14
2018-10-02T05:54:35.123Z,10.13
2018-10-02T05:57:03.934Z,10.12
2018-10-02T05:59:32.605Z,10.10
2018-10-02T06:02:01.604Z,10.17
2018-10-02T06:04:30.205Z,10.29
2018-10-02T06:06:59.024Z,10.38
2018-10-02T06:09:27.623Z,10.35
2018-10-02T06:11:56.244Z,10.31
2018-10-02T06:14:24.948Z,10.22
2018-10-02T06:16:53.565Z,10.12
2018-10-02T06:19:22.199Z,10.12
2018-10-02T06:21:51.768Z,10.10
2018-10-02T06:24:20.439Z,10.04
2018-10-02T06:26:50.116Z,10.14
2018-10-02T06:29:19.424Z,10.11
2018-10-02T06:31:48.004Z,10.10
2018-10-02T06:34:16.699Z,10.13
2018-10-02T06:36:45.245Z,10.19
2018-10-02T06:39:13.948Z,10.30
2018-10-02T06:41:42.585Z,10.45
2018-10-02T06:44:11.658Z,10.42
2018-10-02T06:46:40.558Z,10.24
2018-10-02T06:49:09.308Z,10.24
2018-10-02T06:51:38.157Z,10.25
2018-10-02T06:54:06.693Z,10.31
2018-10-02T06:56:35.296Z,10.34
2018-10-02T06:59:03.914Z,10.40
2018-10-02T07:01:33.495Z,10.44
2018-10-02T07:04:03.374Z,10.27
2018-10-02T07:06:32.117Z,10.18
2018-10-02T07:09:00.941Z,10.16
2018-10-02T07:11:29.502Z,10.19
2018-10-02T07:13:58.340Z,10.37
2018-10-02T07:16:27.032Z,10.57
2018-10-02T07:18:55.769Z,10.53
2018-10-02T07:21:24.489Z,10.35
2018-10-02T07:23:53.878Z,10.30
2018-10-02T07:26:22.504Z,10.31
2018-10-02T07:28:51.298Z,10.24
2018-10-02T07:31:20.385Z,10.20
2018-10-02T07:33:49.521Z,10.26
2018-10-02T07:36:18.804Z,10.28
2018-10-02T07:38:47.480Z,10.29
2018-10-02T07:41:16.128Z,10.31
2018-10-02T07:43:44.776Z,10.36
2018-10-02T07:46:13.545Z,10.43
2018-10-02T07:48:42.478Z,10.60
2018-10-02T07:51:11.128Z,10.77
2018-10-02T07:53:40.108Z,10.81
2018-10-02T07:56:08.772Z,10.73
2018-10-02T07:58:37.437Z,10.66
2018-10-02T08:01:06.108Z,10.68
2018-10-02T08:03:35.321Z,10.70
2018-10-02T08:06:04.007Z,10.71
2018-10-02T08:08:32.742Z,10.67
2018-10-02T08:11:02.063Z,10.68
2018-10-02T08:13:30.842Z,10.64
2018-10-02T08:15:59.539Z,10.72
2018-10-02T08:18:28.449Z,10.73
2018-10-02T08:20:57.272Z,10.88
2018-10-02T08:23:26.846Z,11.00
2018-10-02T08:25:55.625Z,11.22
2018-10-02T08:28:25.221Z,11.28
2018-10-02T08:30:53.899Z,11.14
2018-10-02T08:33:22.524Z,11.01
2018-10-02T08:35:51.832Z,10.88
2018-10-02T08:38:20.352Z,10.86
2018-10-02T08:40:49.000Z,10.97
2018-10-02T08:43:18.422Z,10.92
2018-10-02T08:45:47.573Z,10.95
2018-10-02T08:48:16.744Z,10.96
2018-10-02T08:50:45.383Z,11.02
2018-10-02T08:53:13.995Z,11.00
2018-10-02T08:55:43.225Z,10.97
2018-10-02T08:58:11.818Z,11.07
2018-10-02T09:00:40.560Z,11.07
2018-10-02T09:03:10.102Z,11.33
2018-10-02T09:05:38.738Z,11.26
2018-10-02T09:08:07.630Z,11.10
2018-10-02T09:10:36.713Z,11.03
2018-10-02T09:13:05.479Z,11.03
2018-10-02T09:15:34.134Z,10.95
2018-10-02T09:18:02.679Z,10.95
2018-10-02T09:20:31.084Z,10.90
2018-10-02T09:22:59.619Z,10.72
2018-10-02T09:25:28.218Z,10.69
2018-10-02T09:27:57.202Z,10.64
2018-10-02T09:30:30.943Z,10.56
2018-10-02T09:33:04.765Z,10.62
2018-10-02T09:35:38.518Z,10.57
2018-10-02T09:38:12.428Z,10.61
2018-10-02T09:40:46.934Z,10.69
2018-10-02T09:43:54.192Z,10.79
2018-10-02T09:46:23.353Z,10.85
2018-10-02T09:48:51.989Z,10.75
2018-10-02T09:51:20.678Z,10.63
2018-10-02T09:53:50.359Z,10.63
2018-10-02T09:56:19.114Z,10.49
2018-10-02T09:58:47.833Z,10.48
2018-10-02T10:01:21.543Z,10.47
2018-10-02T10:03:50.383Z,10.44
2018-10-02T10:06:19.099Z,10.52
2018-10-02T10:08:47.753Z,10.43
2018-10-02T10:11:16.473Z,10.32
2018-10-02T10:13:45.114Z,10.36
2018-10-02T10:16:13.884Z,10.38
2018-10-02T10:18:43.253Z,10.42
2018-10-02T10:21:13.457Z,10.59
2018-10-02T10:23:42.805Z,10.62
2018-10-02T10:26:11.597Z,10.80
2018-10-02T10:28:40.468Z,10.81
2018-10-02T10:31:09.568Z,10.78
2018-10-02T10:33:38.266Z,10.84
2018-10-02T10:36:07.048Z,10.88
2018-10-02T10:38:35.764Z,11.15
2018-10-02T10:41:04.594Z,11.14
2018-10-02T10:43:33.389Z,11.08
2018-10-02T10:46:02.556Z,11.11
2018-10-02T10:48:31.502Z,11.06
2018-10-02T10:51:00.154Z,11.08
2018-10-02T10:53:29.536Z,11.06
2018-10-02T10:55:59.313Z,11.03
2018-10-02T10:58:27.981Z,11.02
2018-10-02T11:00:56.657Z,11.05
2018-10-02T11:03:25.284Z,11.06
2018-10-02T11:05:54.083Z,11.18
2018-10-02T11:08:22.743Z,11.23
2018-10-02T11:10:51.468Z,11.23
2018-10-02T11:13:20.423Z,11.26
2018-10-02T11:15:49.204Z,11.24
2018-10-02T11:18:17.984Z,11.20
2018-10-02T11:20:46.863Z,11.25
2018-10-02T11:23:15.765Z,11.24
2018-10-02T11:25:44.473Z,11.37
2018-10-02T11:28:13.148Z,11.56
2018-10-02T11:30:42.972Z,11.70
2018-10-02T11:33:11.752Z,11.96
2018-10-02T11:35:41.132Z,11.81
2018-10-02T11:38:09.854Z,11.72
2018-10-02T11:40:38.588Z,11.72
2018-10-02T11:43:07.592Z,11.69
2018-10-02T11:45:36.733Z,11.72
2018-10-02T11:48:05.314Z,11.69
2018-10-02T11:50:34.303Z,11.62
2018-10-02T11:53:03.032Z,11.71
2018-10-02T11:55:32.222Z,11.70
2018-10-02T11:58:01.755Z,11.79
2018-10-02T12:00:30.499Z,11.75
2018-10-02T12:02:59.172Z,11.84
2018-10-02T12:05:28.054Z,11.92
2018-10-02T12:07:56.688Z,11.83
2018-10-02T12:10:25.383Z,11.88
2018-10-02T12:12:54.179Z,11.99
2018-10-02T12:15:24.428Z,12.01
2018-10-02T12:17:53.202Z,12.05
2018-10-02T12:20:21.894Z,12.04
2018-10-02T12:22:51.827Z,11.98
2018-10-02T12:25:20.983Z,12.04
2018-10-02T12:27:49.699Z,11.97
2018-10-02T12:30:18.384Z,12.03
2018-10-02T12:32:47.088Z,12.13
2018-10-02T12:35:15.639Z,12.24
2018-10-02T12:37:44.215Z,12.34
2018-10-02T12:40:13.021Z,12.43
2018-10-02T12:42:41.648Z,12.46
2018-10-02T12:45:10.364Z,12.45
2018-10-02T12:47:39.542Z,12.30
2018-10-02T12:50:08.361Z,12.37
2018-10-02T12:52:37.146Z,12.40
2018-10-02T12:55:05.818Z,12.29
2018-10-02T12:57:34.470Z,12.38
2018-10-02T13:00:03.177Z,12.45
2018-10-02T13:02:32.093Z,12.35
2018-10-02T13:05:00.749Z,12.34
2018-10-02T13:07:29.378Z,12.44
2018-10-02T13:09:58.087Z,12.61
2018-10-02T13:12:26.629Z,12.67
2018-10-02T13:14:55.383Z,12.67
2018-10-02T13:17:24.082Z,12.67
2018-10-02T13:19:52.822Z,12.53
2018-10-02T13:22:21.648Z,12.58
2018-10-02T13:24:50.312Z,12.65
2018-10-02T13:27:19.796Z,12.75
2018-10-02T13:29:48.427Z,12.78
2018-10-02T13:32:17.131Z,12.83
2018-10-02T13:34:45.969Z,12.84
2018-10-02T13:37:14.719Z,12.84
2018-10-02T13:39:43.345Z,12.98
2018-10-02T13:42:12.612Z,12.94
2018-10-02T13:44:41.329Z,13.02
2018-10-02T13:47:09.937Z,13.10
2018-10-02T13:49:38.516Z,13.03
2018-10-02T13:52:08.253Z,13.09
2018-10-02T13:54:36.923Z,13.03
2018-10-02T13:57:05.664Z,13.14
2018-10-02T13:59:34.618Z,13.26
2018-10-02T14:02:04.261Z,13.28
2018-10-02T14:04:33.208Z,13.27
2018-10-02T14:07:01.801Z,13.23
2018-10-02T14:09:30.404Z,13.29
2018-10-02T14:11:59.133Z,13.38
2018-10-02T14:14:28.448Z,13.43
2018-10-02T14:16:57.064Z,13.63
2018-10-02T14:19:25.947Z,13.66
2018-10-02T14:21:54.780Z,13.75
2018-10-02T14:24:23.442Z,13.87
2018-10-02T14:26:52.374Z,14.00
2018-10-02T14:29:21.227Z,14.08
2018-10-02T14:31:50.726Z,13.99
2018-10-02T14:34:19.303Z,14.00
2018-10-02T14:36:47.868Z,13.95
2018-10-02T14:39:16.674Z,14.03
2018-10-02T14:41:46.135Z,14.16
2018-10-02T14:44:14.749Z,14.33
2018-10-02T14:46:44.011Z,14.47
2018-10-02T14:49:12.784Z,14.49
2018-10-02T14:51:41.602Z,14.63
2018-10-02T14:54:10.676Z,14.74
2018-10-02T14:56:40.055Z,14.87
2018-10-02T14:59:08.738Z,14.91
2018-10-02T15:01:37.486Z,14.91
2018-10-02T15:04:06.581Z,15.01
2018-10-02T15:06:35.269Z,15.07
2018-10-02T15:09:05.549Z,15.11
2018-10-02T15:11:34.281Z,14.98
2018-10-02T15:14:03.056Z,14.96
2018-10-02T15:16:31.602Z,15.00
2018-10-02T15:19:01.044Z,14.89
2018-10-02T15:21:30.121Z,14.79
2018-10-02T15:23:58.794Z,14.80
2018-10-02T15:26:28.056Z,14.90
2018-10-02T15:28:56.809Z,14.68
2018-10-02T15:31:25.400Z,14.68
2018-10-02T15:33:54.017Z,14.68
2018-10-02T15:36:23.739Z,14.64
2018-10-02T15:38:53.133Z,14.69
2018-10-02T15:41:21.832Z,14.62
2018-10-02T15:43:50.599Z,14.62
2018-10-02T15:46:19.169Z,14.56
2018-10-02T15:48:47.760Z,14.50
2018-10-02T15:51:17.210Z,14.56
2018-10-02T15:53:45.852Z,14.54
2018-10-02T15:56:14.633Z,14.33
2018-10-02T15:58:43.976Z,14.38
2018-10-02T16:01:12.707Z,14.28
2018-10-02T16:03:41.428Z,14.42
2018-10-02T16:06:10.128Z,14.29
2018-10-02T16:08:38.843Z,14.36
2018-10-02T16:11:07.464Z,14.36
2018-10-02T16:13:36.432Z,14.37
2018-10-02T16:16:05.001Z,14.36
2018-10-02T16:18:34.159Z,14.40
2018-10-02T16:21:02.918Z,14.31
2018-10-02T16:23:31.555Z,14.14
2018-10-02T16:26:00.298Z,14.10
2018-10-02T16:28:29.002Z,14.08
2018-10-02T16:30:58.217Z,14.12
2018-10-02T16:33:26.846Z,14.10
2018-10-02T16:35:55.787Z,14.20
2018-10-02T16:38:24.583Z,14.22
2018-10-02T16:40:54.961Z,14.32
2018-10-02T16:43:23.924Z,14.22
2018-10-02T16:45:52.626Z,14.11
2018-10-02T16:48:21.450Z,14.08
2018-10-02T16:50:50.234Z,14.05
2018-10-02T16:53:18.935Z,14.04
2018-10-02T16:55:47.616Z,13.95
2018-10-02T16:58:16.431Z,13.80
2018-10-02T17:00:45.056Z,13.77
2018-10-02T17:03:13.731Z,13.74
2018-10-02T17:05:43.088Z,13.75
2018-10-02T17:08:11.631Z,13.83
2018-10-02T17:10:41.036Z,13.83
2018-10-02T17:13:09.696Z,13.89
2018-10-02T17:15:38.443Z,13.95
2018-10-02T17:18:07.222Z,13.92
2018-10-02T17:20:35.947Z,13.89
2018-10-02T17:23:04.651Z,13.93
2018-10-02T17:25:34.271Z,14.03
2018-10-02T17:28:04.155Z,14.17
2018-10-02T17:30:32.784Z,14.32
2018-10-02T17:33:01.592Z,14.61
2018-10-02T17:35:30.327Z,14.36
2018-10-02T17:37:58.885Z,14.18
2018-10-02T17:40:27.607Z,13.92
2018-10-02T17:42:56.416Z,13.88
2018-10-02T17:45:25.201Z,13.86
2018-10-02T17:47:55.148Z,13.61
2018-10-02T17:50:24.469Z,13.62
2018-10-02T17:52:53.146Z,13.60
2018-10-02T17:55:21.792Z,13.48
2018-10-02T17:57:50.377Z,13.41
2018-10-02T18:00:19.064Z,13.26
2018-10-02T18:02:47.623Z,13.15
2018-10-02T18:05:16.281Z,13.25
2018-10-02T18:07:45.216Z,13.22
2018-10-02T18:10:13.798Z,13.24
2018-10-02T18:12:43.290Z,13.20
2018-10-02T18:15:12.872Z,13.29
2018-10-02T18:17:41.691Z,13.30
2018-10-02T18:20:11.195Z,13.29
2018-10-02T18:22:40.627Z,13.33
2018-10-02T18:25:09.415Z,13.41
2018-10-02T18:27:38.060Z,13.33
2018-10-02T18:30:06.795Z,13.27
2018-10-02T18:32:35.396Z,13.18
2018-10-02T18:35:04.070Z,13.26
2018-10-02T18:37:32.660Z,13.17
2018-10-02T18:40:01.428Z,13.10
2018-10-02T18:42:30.742Z,13.23
2018-10-02T18:44:59.358Z,13.22
2018-10-02T18:47:27.923Z,13.36
2018-10-02T18:49:56.507Z,13.39
2018-10-02T18:52:25.075Z,13.40
2018-10-02T18:54:53.700Z,13.27
2018-10-02T18:57:22.348Z,13.22
2018-10-02T18:59:51.083Z,13.22
2018-10-02T19:02:20.736Z,13.03
2018-10-02T19:04:49.406Z,12.91
2018-10-02T19:07:18.132Z,13.06
2018-10-02T19:09:48.418Z,12.97
2018-10-02T19:12:18.757Z,12.98
2018-10-02T19:14:47.441Z,13.03
2018-10-02T19:17:16.418Z,12.90
2018-10-02T19:19:50.256Z,12.86
2018-10-02T19:22:18.956Z,12.95
2018-10-02T19:24:47.754Z,13.01
2018-10-02T19:27:16.416Z,12.97
2018-10-02T19:29:46.006Z,12.99
2018-10-02T19:32:17.472Z,13.06
2018-10-02T19:34:46.471Z,13.13
2018-10-02T19:37:20.350Z,13.04
2018-10-02T19:39:49.107Z,12.97
2018-10-02T19:42:18.602Z,13.06
2018-10-02T19:44:47.642Z,13.05
2018-10-02T19:47:17.088Z,13.07
2018-10-02T19:49:45.793Z,13.02
2018-10-02T19:52:16.490Z,12.95
2018-10-02T19:54:45.912Z,12.91
2018-10-02T19:57:17.084Z,12.95
2018-10-02T19:59:45.700Z,12.79
2018-10-02T20:02:14.316Z,12.84
2018-10-02T20:04:42.985Z,13.01
2018-10-02T20:07:11.605Z,13.01
2018-10-02T20:09:40.345Z,12.97
2018-10-02T20:12:08.941Z,13.07
2018-10-02T20:14:37.676Z,13.20
2018-10-02T20:17:06.665Z,13.45
2018-10-02T20:19:36.332Z,13.79
2018-10-02T20:22:05.376Z,13.86
2018-10-02T20:24:34.595Z,13.51
2018-10-02T20:27:03.176Z,13.40
2018-10-02T20:29:32.601Z,13.19
2018-10-02T20:32:01.219Z,13.14
2018-10-02T20:34:29.867Z,13.17
2018-10-02T20:36:58.783Z,13.16
2018-10-02T20:39:27.461Z,13.00
2018-10-02T20:41:56.420Z,13.00
2018-10-02T20:44:25.880Z,13.00
2018-10-02T20:46:54.786Z,13.06
2018-10-02T20:49:23.665Z,13.00
2018-10-02T20:51:53.017Z,12.88
2018-10-02T20:54:21.615Z,12.90
2018-10-02T20:56:50.323Z,12.95
2018-10-02T20:59:18.977Z,13.05
2018-10-02T21:01:47.655Z,12.98
2018-10-02T21:04:16.272Z,12.97
2018-10-02T21:06:45.017Z,12.90
2018-10-02T21:09:13.665Z,13.01
2018-10-02T21:11:42.227Z,12.98
2018-10-02T21:14:11.450Z,12.91
2018-10-02T21:16:40.105Z,13.00
2018-10-02T21:19:09.446Z,13.05
2018-10-02T21:21:38.650Z,12.94
2018-10-02T21:24:07.426Z,12.78
2018-10-02T21:26:36.054Z,12.73
2018-10-02T21:29:04.683Z,12.86
2018-10-02T21:31:33.651Z,12.89
2018-10-02T21:34:03.097Z,12.82
2018-10-02T21:36:31.691Z,12.99
2018-10-02T21:39:00.492Z,12.92
2018-10-02T21:41:29.111Z,12.90
2018-10-02T21:43:57.817Z,12.80
2018-10-02T21:46:26.757Z,12.78
2018-10-02T21:48:55.465Z,12.83
2018-10-02T21:51:24.467Z,12.81
2018-10-02T21:53:53.303Z,12.84
2018-10-02T21:56:22.117Z,12.84
2018-10-02T21:58:50.743Z,12.88
2018-10-02T22:01:19.395Z,12.91
2018-10-02T22:03:48.694Z,12.85
2018-10-02T22:06:17.817Z,12.72
2018-10-02T22:08:46.448Z,12.67
2018-10-02T22:11:15.250Z,12.58
2018-10-02T22:13:43.866Z,12.53
2018-10-02T22:16:12.473Z,12.53
2018-10-02T22:18:41.063Z,12.52
2018-10-02T22:21:09.797Z,12.61
2018-10-02T22:23:38.355Z,12.66
2018-10-02T22:26:07.033Z,12.70
2018-10-02T22:28:35.691Z,12.68
2018-10-02T22:31:04.295Z,12.69
2018-10-02T22:33:32.910Z,12.73
2018-10-02T22:36:01.444Z,12.90
2018-10-02T22:38:30.337Z,13.03
2018-10-02T22:40:59.019Z,13.18
2018-10-02T22:43:27.755Z,13.29
2018-10-02T22:45:57.456Z,12.99
2018-10-02T22:48:26.045Z,12.77
2018-10-02T22:50:55.325Z,12.66
2018-10-02T22:53:25.205Z,12.49
2018-10-02T22:55:53.975Z,12.25
2018-10-02T22:58:23.251Z,12.16
2018-10-02T23:00:52.705Z,12.14
2018-10-02T23:03:21.650Z,12.13
2018-10-02T23:05:50.226Z,12.15
2018-10-02T23:08:18.772Z,12.13
2018-10-02T23:10:47.722Z,12.25
2018-10-02T23:13:16.515Z,12.43
2018-10-02T23:15:45.829Z,12.58
2018-10-02T23:18:14.492Z,12.55
2018-10-02T23:20:43.156Z,12.40
2018-10-02T23:23:11.980Z,12.21
2018-10-02T23:25:40.561Z,12.26
2018-10-02T23:28:09.187Z,12.30
2018-10-02T23:30:37.925Z,12.17
2018-10-02T23:33:07.138Z,12.02
2018-10-02T23:35:35.861Z,11.98
2018-10-02T23:38:04.581Z,11.93
2018-10-02T23:40:33.222Z,11.87
2018-10-02T23:43:01.864Z,11.89
2018-10-02T23:45:30.546Z,11.83
2018-10-02T23:47:59.327Z,11.89
2018-10-02T23:50:28.196Z,12.08
2018-10-02T23:52:56.894Z,12.12
2018-10-02T23:55:25.530Z,12.18
2018-10-02T23:57:54.214Z,12.33
